sensor_id;sensor_type;location;lat;lon;timestamp;P1;durP1;ratioP1;P2;durP2;ratioP2
25191;SDS011;13143;50.924;5.320;2022-12-10T00:00:20;79.55;;;36.78;;
25191;SDS011;13143;50.924;5.320;2022-12-10T00:02:45;71.90;;;33.63;;
25191;SDS011;13143;50.924;5.320;2022-12-10T00:05:11;79.75;;;35.83;;
25191;SDS011;13143;50.924;5.320;2022-12-10T00:07:36;67.97;;;33.22;;
25191;SDS011;13143;50.924;5.320;2022-12-10T00:10:02;75.20;;;35.88;;
25191;SDS011;13143;50.924;5.320;2022-12-10T00:12:28;77.47;;;33.95;;
25191;SDS011;13143;50.924;5.320;2022-12-10T00:14:54;71.50;;;34.78;;
25191;SDS011;13143;50.924;5.320;2022-12-10T00:17:19;74.57;;;33.78;;
25191;SDS011;13143;50.924;5.320;2022-12-10T00:19:45;72.35;;;35.03;;
25191;SDS011;13143;50.924;5.320;2022-12-10T00:22:10;81.60;;;37.28;;
25191;SDS011;13143;50.924;5.320;2022-12-10T00:24:36;72.40;;;35.35;;
25191;SDS011;13143;50.924;5.320;2022-12-10T00:27:01;77.00;;;35.35;;
25191;SDS011;13143;50.924;5.320;2022-12-10T00:29:27;72.35;;;36.17;;
25191;SDS011;13143;50.924;5.320;2022-12-10T00:31:53;73.15;;;34.17;;
25191;SDS011;13143;50.924;5.320;2022-12-10T00:34:18;71.80;;;34.17;;
25191;SDS011;13143;50.924;5.320;2022-12-10T00:36:45;67.65;;;32.55;;
25191;SDS011;13143;50.924;5.320;2022-12-10T00:39:13;71.15;;;34.35;;
25191;SDS011;13143;50.924;5.320;2022-12-10T00:41:45;69.53;;;33.92;;
25191;SDS011;13143;50.924;5.320;2022-12-10T00:44:11;70.38;;;34.22;;
25191;SDS011;13143;50.924;5.320;2022-12-10T00:46:37;72.68;;;35.50;;
25191;SDS011;13143;50.924;5.320;2022-12-10T00:49:03;68.93;;;32.42;;
25191;SDS011;13143;50.924;5.320;2022-12-10T00:51:29;80.60;;;36.60;;
25191;SDS011;13143;50.924;5.320;2022-12-10T00:53:56;72.97;;;36.03;;
25191;SDS011;13143;50.924;5.320;2022-12-10T00:56:24;76.00;;;34.60;;
25191;SDS011;13143;50.924;5.320;2022-12-10T00:58:52;72.20;;;34.88;;
25191;SDS011;13143;50.924;5.320;2022-12-10T01:01:22;71.60;;;35.20;;
25191;SDS011;13143;50.924;5.320;2022-12-10T01:03:57;83.88;;;38.50;;
25191;SDS011;13143;50.924;5.320;2022-12-10T01:06:25;77.47;;;36.25;;
25191;SDS011;13143;50.924;5.320;2022-12-10T01:09:12;76.45;;;35.53;;
25191;SDS011;13143;50.924;5.320;2022-12-10T01:11:40;75.90;;;37.13;;
25191;SDS011;13143;50.924;5.320;2022-12-10T01:14:08;69.93;;;34.90;;
25191;SDS011;13143;50.924;5.320;2022-12-10T01:16:38;73.15;;;34.30;;
25191;SDS011;13143;50.924;5.320;2022-12-10T01:19:04;64.65;;;31.77;;
25191;SDS011;13143;50.924;5.320;2022-12-10T01:21:30;72.25;;;34.55;;
25191;SDS011;13143;50.924;5.320;2022-12-10T01:23:56;70.28;;;33.53;;
25191;SDS011;13143;50.924;5.320;2022-12-10T01:26:25;63.08;;;29.83;;
25191;SDS011;13143;50.924;5.320;2022-12-10T01:28:53;74.57;;;33.40;;
25191;SDS011;13143;50.924;5.320;2022-12-10T01:31:26;78.90;;;36.92;;
25191;SDS011;13143;50.924;5.320;2022-12-10T01:33:54;81.97;;;39.83;;
25191;SDS011;13143;50.924;5.320;2022-12-10T01:36:25;88.97;;;39.47;;
25191;SDS011;13143;50.924;5.320;2022-12-10T01:38:51;80.00;;;37.55;;
25191;SDS011;13143;50.924;5.320;2022-12-10T01:41:28;71.28;;;36.30;;
25191;SDS011;13143;50.924;5.320;2022-12-10T01:46:43;68.75;;;33.45;;
25191;SDS011;13143;50.924;5.320;2022-12-10T01:49:12;76.80;;;35.28;;
25191;SDS011;13143;50.924;5.320;2022-12-10T01:51:44;70.13;;;32.90;;
25191;SDS011;13143;50.924;5.320;2022-12-10T01:54:13;74.50;;;34.55;;
25191;SDS011;13143;50.924;5.320;2022-12-10T01:57:02;68.78;;;32.60;;
25191;SDS011;13143;50.924;5.320;2022-12-10T01:59:37;75.80;;;35.05;;
25191;SDS011;13143;50.924;5.320;2022-12-10T02:08:07;73.38;;;34.53;;
25191;SDS011;13143;50.924;5.320;2022-12-10T02:10:43;76.93;;;34.63;;
25191;SDS011;13143;50.924;5.320;2022-12-10T02:16:08;80.43;;;36.05;;
25191;SDS011;13143;50.924;5.320;2022-12-10T02:19:04;76.25;;;34.05;;
25191;SDS011;13143;50.924;5.320;2022-12-10T02:21:42;74.40;;;34.60;;
25191;SDS011;13143;50.924;5.320;2022-12-10T02:24:13;74.07;;;35.22;;
25191;SDS011;13143;50.924;5.320;2022-12-10T02:29:41;83.10;;;34.65;;
25191;SDS011;13143;50.924;5.320;2022-12-10T02:32:11;73.68;;;34.65;;
25191;SDS011;13143;50.924;5.320;2022-12-10T02:34:43;71.20;;;33.40;;
25191;SDS011;13143;50.924;5.320;2022-12-10T02:37:33;66.55;;;31.98;;
25191;SDS011;13143;50.924;5.320;2022-12-10T02:40:08;69.85;;;31.95;;
25191;SDS011;13143;50.924;5.320;2022-12-10T02:42:40;73.50;;;32.88;;
25191;SDS011;13143;50.924;5.320;2022-12-10T02:45:09;78.55;;;34.38;;
25191;SDS011;13143;50.924;5.320;2022-12-10T02:47:36;77.50;;;34.35;;
25191;SDS011;13143;50.924;5.320;2022-12-10T02:50:03;79.22;;;36.53;;
25191;SDS011;13143;50.924;5.320;2022-12-10T02:52:30;81.65;;;36.80;;
25191;SDS011;13143;50.924;5.320;2022-12-10T02:54:56;83.93;;;37.05;;
25191;SDS011;13143;50.924;5.320;2022-12-10T03:00:00;85.43;;;36.65;;
25191;SDS011;13143;50.924;5.320;2022-12-10T03:05:24;83.90;;;36.83;;
25191;SDS011;13143;50.924;5.320;2022-12-10T03:08:02;81.45;;;37.20;;
25191;SDS011;13143;50.924;5.320;2022-12-10T03:10:44;83.15;;;36.10;;
25191;SDS011;13143;50.924;5.320;2022-12-10T03:13:11;77.93;;;35.53;;
25191;SDS011;13143;50.924;5.320;2022-12-10T03:15:40;76.95;;;33.30;;
25191;SDS011;13143;50.924;5.320;2022-12-10T03:18:07;64.50;;;30.90;;
25191;SDS011;13143;50.924;5.320;2022-12-10T03:20:39;65.43;;;30.73;;
25191;SDS011;13143;50.924;5.320;2022-12-10T03:23:09;74.03;;;32.13;;
25191;SDS011;13143;50.924;5.320;2022-12-10T03:25:39;73.75;;;31.92;;
25191;SDS011;13143;50.924;5.320;2022-12-10T03:28:05;72.70;;;33.65;;
25191;SDS011;13143;50.924;5.320;2022-12-10T03:30:33;76.43;;;34.13;;
25191;SDS011;13143;50.924;5.320;2022-12-10T03:33:01;79.22;;;35.05;;
25191;SDS011;13143;50.924;5.320;2022-12-10T03:35:26;83.90;;;36.15;;
25191;SDS011;13143;50.924;5.320;2022-12-10T03:37:52;81.95;;;34.50;;
25191;SDS011;13143;50.924;5.320;2022-12-10T03:40:20;83.65;;;34.45;;
25191;SDS011;13143;50.924;5.320;2022-12-10T03:42:48;82.15;;;33.95;;
25191;SDS011;13143;50.924;5.320;2022-12-10T03:45:14;78.07;;;33.78;;
25191;SDS011;13143;50.924;5.320;2022-12-10T03:47:40;75.25;;;32.72;;
25191;SDS011;13143;50.924;5.320;2022-12-10T03:50:07;85.72;;;34.47;;
25191;SDS011;13143;50.924;5.320;2022-12-10T03:52:33;83.78;;;34.33;;
25191;SDS011;13143;50.924;5.320;2022-12-10T03:54:58;88.60;;;35.63;;
25191;SDS011;13143;50.924;5.320;2022-12-10T03:57:24;84.38;;;35.65;;
25191;SDS011;13143;50.924;5.320;2022-12-10T03:59:50;88.15;;;36.50;;
25191;SDS011;13143;50.924;5.320;2022-12-10T04:02:15;84.60;;;34.70;;
25191;SDS011;13143;50.924;5.320;2022-12-10T04:04:41;88.18;;;35.22;;
25191;SDS011;13143;50.924;5.320;2022-12-10T04:07:07;85.97;;;35.78;;
25191;SDS011;13143;50.924;5.320;2022-12-10T04:09:32;82.03;;;35.17;;
25191;SDS011;13143;50.924;5.320;2022-12-10T04:11:58;84.60;;;34.20;;
25191;SDS011;13143;50.924;5.320;2022-12-10T04:14:25;90.03;;;35.78;;
25191;SDS011;13143;50.924;5.320;2022-12-10T04:17:12;87.22;;;35.15;;
25191;SDS011;13143;50.924;5.320;2022-12-10T04:19:37;84.53;;;34.42;;
25191;SDS011;13143;50.924;5.320;2022-12-10T04:22:03;84.05;;;34.40;;
25191;SDS011;13143;50.924;5.320;2022-12-10T04:24:48;88.15;;;36.08;;
25191;SDS011;13143;50.924;5.320;2022-12-10T04:27:51;89.28;;;36.65;;
25191;SDS011;13143;50.924;5.320;2022-12-10T04:30:17;88.40;;;37.45;;
25191;SDS011;13143;50.924;5.320;2022-12-10T04:32:43;90.32;;;36.78;;
25191;SDS011;13143;50.924;5.320;2022-12-10T04:35:09;86.35;;;36.47;;
25191;SDS011;13143;50.924;5.320;2022-12-10T04:37:35;89.40;;;36.47;;
25191;SDS011;13143;50.924;5.320;2022-12-10T04:40:01;94.22;;;38.05;;
25191;SDS011;13143;50.924;5.320;2022-12-10T04:42:27;83.28;;;36.13;;
25191;SDS011;13143;50.924;5.320;2022-12-10T04:44:53;94.15;;;37.50;;
25191;SDS011;13143;50.924;5.320;2022-12-10T04:47:19;91.45;;;37.03;;
25191;SDS011;13143;50.924;5.320;2022-12-10T04:49:44;89.75;;;37.97;;
25191;SDS011;13143;50.924;5.320;2022-12-10T04:52:12;90.47;;;37.90;;
25191;SDS011;13143;50.924;5.320;2022-12-10T04:54:40;91.75;;;37.05;;
25191;SDS011;13143;50.924;5.320;2022-12-10T04:57:06;96.15;;;39.08;;
25191;SDS011;13143;50.924;5.320;2022-12-10T04:59:32;96.03;;;38.08;;
25191;SDS011;13143;50.924;5.320;2022-12-10T05:01:59;86.78;;;37.08;;
25191;SDS011;13143;50.924;5.320;2022-12-10T05:04:25;94.85;;;38.95;;
25191;SDS011;13143;50.924;5.320;2022-12-10T05:06:50;94.95;;;37.13;;
25191;SDS011;13143;50.924;5.320;2022-12-10T05:09:16;102.82;;;37.72;;
25191;SDS011;13143;50.924;5.320;2022-12-10T05:11:42;87.45;;;36.47;;
25191;SDS011;13143;50.924;5.320;2022-12-10T05:14:12;98.82;;;36.42;;
25191;SDS011;13143;50.924;5.320;2022-12-10T05:16:39;94.15;;;35.78;;
25191;SDS011;13143;50.924;5.320;2022-12-10T05:19:05;90.47;;;37.20;;
25191;SDS011;13143;50.924;5.320;2022-12-10T05:21:31;92.18;;;38.05;;
25191;SDS011;13143;50.924;5.320;2022-12-10T05:24:16;98.80;;;38.17;;
25191;SDS011;13143;50.924;5.320;2022-12-10T05:26:42;96.97;;;38.08;;
25191;SDS011;13143;50.924;5.320;2022-12-10T05:29:08;96.40;;;38.63;;
25191;SDS011;13143;50.924;5.320;2022-12-10T05:31:33;94.43;;;39.15;;
25191;SDS011;13143;50.924;5.320;2022-12-10T05:33:59;93.47;;;38.08;;
25191;SDS011;13143;50.924;5.320;2022-12-10T05:36:26;92.13;;;36.47;;
25191;SDS011;13143;50.924;5.320;2022-12-10T05:38:53;90.30;;;35.58;;
25191;SDS011;13143;50.924;5.320;2022-12-10T05:41:22;92.95;;;38.00;;
25191;SDS011;13143;50.924;5.320;2022-12-10T05:43:50;85.55;;;36.88;;
25191;SDS011;13143;50.924;5.320;2022-12-10T05:46:17;85.00;;;36.88;;
25191;SDS011;13143;50.924;5.320;2022-12-10T05:48:45;90.13;;;36.63;;
25191;SDS011;13143;50.924;5.320;2022-12-10T05:51:12;95.30;;;38.65;;
25191;SDS011;13143;50.924;5.320;2022-12-10T05:53:39;84.43;;;36.72;;
25191;SDS011;13143;50.924;5.320;2022-12-10T05:56:07;90.97;;;37.00;;
25191;SDS011;13143;50.924;5.320;2022-12-10T05:58:38;87.15;;;36.13;;
25191;SDS011;13143;50.924;5.320;2022-12-10T06:01:09;90.97;;;38.75;;
25191;SDS011;13143;50.924;5.320;2022-12-10T06:03:37;85.90;;;35.78;;
25191;SDS011;13143;50.924;5.320;2022-12-10T06:06:03;81.88;;;36.17;;
25191;SDS011;13143;50.924;5.320;2022-12-10T06:08:30;85.65;;;35.40;;
25191;SDS011;13143;50.924;5.320;2022-12-10T06:11:00;93.38;;;35.25;;
25191;SDS011;13143;50.924;5.320;2022-12-10T06:13:26;88.22;;;36.25;;
25191;SDS011;13143;50.924;5.320;2022-12-10T06:15:52;86.70;;;35.38;;
25191;SDS011;13143;50.924;5.320;2022-12-10T06:18:17;88.45;;;36.63;;
25191;SDS011;13143;50.924;5.320;2022-12-10T06:20:43;90.25;;;36.92;;
25191;SDS011;13143;50.924;5.320;2022-12-10T06:23:09;93.32;;;36.92;;
25191;SDS011;13143;50.924;5.320;2022-12-10T06:25:37;87.82;;;36.15;;
25191;SDS011;13143;50.924;5.320;2022-12-10T06:28:03;87.55;;;36.40;;
25191;SDS011;13143;50.924;5.320;2022-12-10T06:30:29;90.07;;;37.30;;
25191;SDS011;13143;50.924;5.320;2022-12-10T06:32:55;97.03;;;38.83;;
25191;SDS011;13143;50.924;5.320;2022-12-10T06:35:20;92.35;;;37.33;;
25191;SDS011;13143;50.924;5.320;2022-12-10T06:37:46;93.60;;;35.67;;
25191;SDS011;13143;50.924;5.320;2022-12-10T06:40:12;96.43;;;36.83;;
25191;SDS011;13143;50.924;5.320;2022-12-10T06:42:37;93.20;;;36.55;;
25191;SDS011;13143;50.924;5.320;2022-12-10T06:45:03;99.00;;;38.10;;
25191;SDS011;13143;50.924;5.320;2022-12-10T06:47:29;92.78;;;36.33;;
25191;SDS011;13143;50.924;5.320;2022-12-10T06:49:54;97.95;;;38.95;;
25191;SDS011;13143;50.924;5.320;2022-12-10T06:52:20;97.15;;;36.38;;
25191;SDS011;13143;50.924;5.320;2022-12-10T06:54:46;98.15;;;38.50;;
25191;SDS011;13143;50.924;5.320;2022-12-10T06:57:11;97.13;;;37.85;;
25191;SDS011;13143;50.924;5.320;2022-12-10T06:59:37;87.80;;;37.30;;
25191;SDS011;13143;50.924;5.320;2022-12-10T07:02:03;97.47;;;39.53;;
25191;SDS011;13143;50.924;5.320;2022-12-10T07:04:28;81.40;;;32.83;;
25191;SDS011;13143;50.924;5.320;2022-12-10T07:06:54;101.15;;;35.53;;
25191;SDS011;13143;50.924;5.320;2022-12-10T07:09:22;87.70;;;33.00;;
25191;SDS011;13143;50.924;5.320;2022-12-10T07:11:49;88.45;;;35.22;;
25191;SDS011;13143;50.924;5.320;2022-12-10T07:14:15;88.53;;;33.85;;
25191;SDS011;13143;50.924;5.320;2022-12-10T07:16:41;95.68;;;35.88;;
25191;SDS011;13143;50.924;5.320;2022-12-10T07:19:08;90.40;;;35.45;;
25191;SDS011;13143;50.924;5.320;2022-12-10T07:21:36;81.78;;;33.97;;
25191;SDS011;13143;50.924;5.320;2022-12-10T07:24:12;97.10;;;36.28;;
25191;SDS011;13143;50.924;5.320;2022-12-10T07:26:41;86.55;;;34.40;;
25191;SDS011;13143;50.924;5.320;2022-12-10T07:29:09;85.82;;;32.70;;
25191;SDS011;13143;50.924;5.320;2022-12-10T07:31:41;82.90;;;32.88;;
25191;SDS011;13143;50.924;5.320;2022-12-10T07:34:07;87.32;;;33.95;;
25191;SDS011;13143;50.924;5.320;2022-12-10T07:36:33;82.68;;;33.45;;
25191;SDS011;13143;50.924;5.320;2022-12-10T07:38:59;85.75;;;34.05;;
25191;SDS011;13143;50.924;5.320;2022-12-10T07:41:25;80.65;;;33.15;;
25191;SDS011;13143;50.924;5.320;2022-12-10T07:43:51;79.28;;;30.63;;
25191;SDS011;13143;50.924;5.320;2022-12-10T07:48:47;88.32;;;33.70;;
25191;SDS011;13143;50.924;5.320;2022-12-10T07:51:14;85.18;;;34.90;;
25191;SDS011;13143;50.924;5.320;2022-12-10T07:53:41;92.57;;;35.80;;
25191;SDS011;13143;50.924;5.320;2022-12-10T07:56:07;92.85;;;35.95;;
25191;SDS011;13143;50.924;5.320;2022-12-10T07:58:33;88.28;;;35.15;;
25191;SDS011;13143;50.924;5.320;2022-12-10T08:00:59;88.85;;;34.03;;
25191;SDS011;13143;50.924;5.320;2022-12-10T08:03:30;93.80;;;36.78;;
25191;SDS011;13143;50.924;5.320;2022-12-10T08:06:02;92.38;;;35.28;;
25191;SDS011;13143;50.924;5.320;2022-12-10T08:08:33;85.43;;;34.50;;
25191;SDS011;13143;50.924;5.320;2022-12-10T08:11:00;84.40;;;32.60;;
25191;SDS011;13143;50.924;5.320;2022-12-10T08:13:28;83.50;;;35.08;;
25191;SDS011;13143;50.924;5.320;2022-12-10T08:15:54;90.57;;;34.75;;
25191;SDS011;13143;50.924;5.320;2022-12-10T08:18:24;83.95;;;34.75;;
25191;SDS011;13143;50.924;5.320;2022-12-10T08:20:50;100.13;;;36.47;;
25191;SDS011;13143;50.924;5.320;2022-12-10T08:23:16;102.68;;;37.60;;
25191;SDS011;13143;50.924;5.320;2022-12-10T08:25:41;88.05;;;36.78;;
25191;SDS011;13143;50.924;5.320;2022-12-10T08:28:07;100.32;;;38.78;;
25191;SDS011;13143;50.924;5.320;2022-12-10T08:30:34;96.75;;;36.80;;
25191;SDS011;13143;50.924;5.320;2022-12-10T08:32:59;95.78;;;39.00;;
25191;SDS011;13143;50.924;5.320;2022-12-10T08:35:25;103.63;;;42.08;;
25191;SDS011;13143;50.924;5.320;2022-12-10T08:37:51;96.55;;;39.15;;
25191;SDS011;13143;50.924;5.320;2022-12-10T08:40:16;96.63;;;37.53;;
25191;SDS011;13143;50.924;5.320;2022-12-10T08:42:42;89.30;;;35.10;;
25191;SDS011;13143;50.924;5.320;2022-12-10T08:45:08;96.32;;;35.70;;
25191;SDS011;13143;50.924;5.320;2022-12-10T08:47:34;95.63;;;36.92;;
25191;SDS011;13143;50.924;5.320;2022-12-10T08:49:59;100.88;;;38.63;;
25191;SDS011;13143;50.924;5.320;2022-12-10T08:52:25;99.80;;;38.97;;
25191;SDS011;13143;50.924;5.320;2022-12-10T08:54:54;101.68;;;37.85;;
25191;SDS011;13143;50.924;5.320;2022-12-10T08:57:19;98.35;;;38.58;;
25191;SDS011;13143;50.924;5.320;2022-12-10T08:59:45;100.45;;;38.53;;
25191;SDS011;13143;50.924;5.320;2022-12-10T09:02:11;107.05;;;40.08;;
25191;SDS011;13143;50.924;5.320;2022-12-10T09:04:36;94.78;;;37.45;;
25191;SDS011;13143;50.924;5.320;2022-12-10T09:07:04;107.70;;;39.28;;
25191;SDS011;13143;50.924;5.320;2022-12-10T09:09:30;100.97;;;39.67;;
25191;SDS011;13143;50.924;5.320;2022-12-10T09:11:56;96.32;;;37.85;;
25191;SDS011;13143;50.924;5.320;2022-12-10T09:14:22;99.20;;;37.85;;
25191;SDS011;13143;50.924;5.320;2022-12-10T09:16:48;97.88;;;37.03;;
25191;SDS011;13143;50.924;5.320;2022-12-10T09:19:14;97.72;;;36.65;;
25191;SDS011;13143;50.924;5.320;2022-12-10T09:21:40;102.82;;;37.65;;
25191;SDS011;13143;50.924;5.320;2022-12-10T09:24:06;100.68;;;36.33;;
25191;SDS011;13143;50.924;5.320;2022-12-10T09:26:32;96.63;;;36.55;;
25191;SDS011;13143;50.924;5.320;2022-12-10T09:28:57;100.15;;;37.50;;
25191;SDS011;13143;50.924;5.320;2022-12-10T09:31:24;108.75;;;39.97;;
25191;SDS011;13143;50.924;5.320;2022-12-10T09:33:53;106.18;;;38.78;;
25191;SDS011;13143;50.924;5.320;2022-12-10T09:36:19;109.07;;;40.20;;
25191;SDS011;13143;50.924;5.320;2022-12-10T09:38:46;111.13;;;39.15;;
25191;SDS011;13143;50.924;5.320;2022-12-10T09:44:05;105.15;;;41.25;;
25191;SDS011;13143;50.924;5.320;2022-12-10T09:49:25;105.05;;;39.47;;
25191;SDS011;13143;50.924;5.320;2022-12-10T09:52:03;109.05;;;38.92;;
25191;SDS011;13143;50.924;5.320;2022-12-10T09:54:33;109.95;;;38.28;;
25191;SDS011;13143;50.924;5.320;2022-12-10T09:57:05;112.72;;;41.00;;
25191;SDS011;13143;50.924;5.320;2022-12-10T09:59:42;119.43;;;41.22;;
25191;SDS011;13143;50.924;5.320;2022-12-10T10:02:22;103.05;;;37.75;;
25191;SDS011;13143;50.924;5.320;2022-12-10T10:04:54;111.63;;;41.42;;
25191;SDS011;13143;50.924;5.320;2022-12-10T10:07:27;83.47;;;29.27;;
25191;SDS011;13143;50.924;5.320;2022-12-10T10:09:57;104.70;;;38.70;;
25191;SDS011;13143;50.924;5.320;2022-12-10T10:12:28;105.38;;;39.47;;
25191;SDS011;13143;50.924;5.320;2022-12-10T10:14:56;108.68;;;39.10;;
25191;SDS011;13143;50.924;5.320;2022-12-10T10:17:27;112.00;;;40.65;;
25191;SDS011;13143;50.924;5.320;2022-12-10T10:19:59;102.35;;;37.95;;
25191;SDS011;13143;50.924;5.320;2022-12-10T10:22:24;108.90;;;39.80;;
25191;SDS011;13143;50.924;5.320;2022-12-10T10:24:51;115.38;;;40.25;;
25191;SDS011;13143;50.924;5.320;2022-12-10T10:27:18;109.40;;;38.53;;
25191;SDS011;13143;50.924;5.320;2022-12-10T10:29:52;106.22;;;39.35;;
25191;SDS011;13143;50.924;5.320;2022-12-10T10:32:44;113.28;;;40.50;;
25191;SDS011;13143;50.924;5.320;2022-12-10T10:35:32;104.72;;;37.20;;
25191;SDS011;13143;50.924;5.320;2022-12-10T10:38:07;111.65;;;37.42;;
25191;SDS011;13143;50.924;5.320;2022-12-10T10:40:43;111.20;;;40.90;;
25191;SDS011;13143;50.924;5.320;2022-12-10T10:43:15;121.97;;;39.65;;
25191;SDS011;13143;50.924;5.320;2022-12-10T10:46:15;115.07;;;37.83;;
25191;SDS011;13143;50.924;5.320;2022-12-10T10:48:50;124.72;;;38.75;;
25191;SDS011;13143;50.924;5.320;2022-12-10T10:51:20;123.63;;;39.25;;
25191;SDS011;13143;50.924;5.320;2022-12-10T10:53:51;120.15;;;38.20;;
25191;SDS011;13143;50.924;5.320;2022-12-10T10:56:28;112.78;;;38.40;;
25191;SDS011;13143;50.924;5.320;2022-12-10T10:59:02;118.70;;;39.92;;
25191;SDS011;13143;50.924;5.320;2022-12-10T11:01:43;122.18;;;39.42;;
25191;SDS011;13143;50.924;5.320;2022-12-10T11:04:09;114.55;;;37.88;;
25191;SDS011;13143;50.924;5.320;2022-12-10T11:06:35;119.07;;;38.60;;
25191;SDS011;13143;50.924;5.320;2022-12-10T11:09:01;116.82;;;37.72;;
25191;SDS011;13143;50.924;5.320;2022-12-10T11:13:55;121.47;;;39.85;;
25191;SDS011;13143;50.924;5.320;2022-12-10T11:16:48;116.43;;;38.40;;
25191;SDS011;13143;50.924;5.320;2022-12-10T11:19:22;115.07;;;37.47;;
25191;SDS011;13143;50.924;5.320;2022-12-10T11:21:48;125.45;;;40.05;;
25191;SDS011;13143;50.924;5.320;2022-12-10T11:24:15;118.72;;;39.72;;
25191;SDS011;13143;50.924;5.320;2022-12-10T11:26:55;109.10;;;38.67;;
25191;SDS011;13143;50.924;5.320;2022-12-10T11:31:57;109.18;;;36.50;;
25191;SDS011;13143;50.924;5.320;2022-12-10T11:45:20;116.30;;;39.10;;
25191;SDS011;13143;50.924;5.320;2022-12-10T11:48:14;114.68;;;37.50;;
25191;SDS011;13143;50.924;5.320;2022-12-10T11:51:49;115.30;;;37.97;;
25191;SDS011;13143;50.924;5.320;2022-12-10T11:54:04;106.57;;;34.90;;
25191;SDS011;13143;50.924;5.320;2022-12-10T11:56:40;109.90;;;33.85;;
25191;SDS011;13143;50.924;5.320;2022-12-10T11:59:13;100.43;;;31.90;;
25191;SDS011;13143;50.924;5.320;2022-12-10T12:07:28;103.65;;;31.98;;
25191;SDS011;13143;50.924;5.320;2022-12-10T12:10:23;99.30;;;32.40;;
25191;SDS011;13143;50.924;5.320;2022-12-10T12:13:33;94.38;;;32.10;;
25191;SDS011;13143;50.924;5.320;2022-12-10T12:18:50;106.97;;;35.30;;
25191;SDS011;13143;50.924;5.320;2022-12-10T12:21:23;112.10;;;34.97;;
25191;SDS011;13143;50.924;5.320;2022-12-10T12:23:58;119.00;;;34.10;;
25191;SDS011;13143;50.924;5.320;2022-12-10T12:26:35;105.95;;;31.67;;
25191;SDS011;13143;50.924;5.320;2022-12-10T12:31:59;109.75;;;34.22;;
25191;SDS011;13143;50.924;5.320;2022-12-10T12:34:49;105.72;;;32.08;;
25191;SDS011;13143;50.924;5.320;2022-12-10T12:37:18;100.88;;;31.30;;
25191;SDS011;13143;50.924;5.320;2022-12-10T12:40:09;94.70;;;32.03;;
25191;SDS011;13143;50.924;5.320;2022-12-10T12:42:50;98.20;;;31.27;;
25191;SDS011;13143;50.924;5.320;2022-12-10T12:45:24;101.00;;;32.35;;
25191;SDS011;13143;50.924;5.320;2022-12-10T12:47:57;100.07;;;32.83;;
25191;SDS011;13143;50.924;5.320;2022-12-10T12:53:10;110.18;;;34.15;;
25191;SDS011;13143;50.924;5.320;2022-12-10T13:01:29;100.22;;;32.38;;
25191;SDS011;13143;50.924;5.320;2022-12-10T13:04:19;96.60;;;29.08;;
25191;SDS011;13143;50.924;5.320;2022-12-10T13:07:08;104.43;;;32.10;;
25191;SDS011;13143;50.924;5.320;2022-12-10T13:12:32;106.45;;;34.47;;
25191;SDS011;13143;50.924;5.320;2022-12-10T13:15:17;108.03;;;33.17;;
25191;SDS011;13143;50.924;5.320;2022-12-10T13:36:36;110.20;;;36.92;;
25191;SDS011;13143;50.924;5.320;2022-12-10T13:41:31;109.72;;;39.05;;
25191;SDS011;13143;50.924;5.320;2022-12-10T13:49:57;106.72;;;32.38;;
25191;SDS011;13143;50.924;5.320;2022-12-10T13:52:26;106.38;;;33.13;;
25191;SDS011;13143;50.924;5.320;2022-12-10T13:57:53;90.97;;;30.83;;
25191;SDS011;13143;50.924;5.320;2022-12-10T14:06:37;96.35;;;32.92;;
25191;SDS011;13143;50.924;5.320;2022-12-10T14:12:16;109.18;;;36.35;;
25191;SDS011;13143;50.924;5.320;2022-12-10T14:17:00;97.43;;;30.90;;
25191;SDS011;13143;50.924;5.320;2022-12-10T14:19:28;90.60;;;28.83;;
25191;SDS011;13143;50.924;5.320;2022-12-10T14:21:54;78.28;;;27.23;;
25191;SDS011;13143;50.924;5.320;2022-12-10T14:24:32;80.25;;;26.48;;
25191;SDS011;13143;50.924;5.320;2022-12-10T14:27:00;70.80;;;25.70;;
25191;SDS011;13143;50.924;5.320;2022-12-10T14:29:35;70.13;;;25.42;;
25191;SDS011;13143;50.924;5.320;2022-12-10T14:32:01;85.45;;;27.13;;
25191;SDS011;13143;50.924;5.320;2022-12-10T14:34:27;79.15;;;27.23;;
25191;SDS011;13143;50.924;5.320;2022-12-10T14:36:57;78.13;;;28.60;;
25191;SDS011;13143;50.924;5.320;2022-12-10T14:39:28;83.28;;;27.98;;
25191;SDS011;13143;50.924;5.320;2022-12-10T14:41:57;68.63;;;26.40;;
25191;SDS011;13143;50.924;5.320;2022-12-10T14:44:28;86.10;;;26.48;;
25191;SDS011;13143;50.924;5.320;2022-12-10T14:47:02;77.00;;;27.58;;
25191;SDS011;13143;50.924;5.320;2022-12-10T14:55:04;78.90;;;27.77;;
25191;SDS011;13143;50.924;5.320;2022-12-10T14:57:32;85.55;;;30.15;;
25191;SDS011;13143;50.924;5.320;2022-12-10T15:02:39;75.10;;;27.27;;
25191;SDS011;13143;50.924;5.320;2022-12-10T15:05:17;72.95;;;27.05;;
25191;SDS011;13143;50.924;5.320;2022-12-10T15:10:23;89.85;;;30.02;;
25191;SDS011;13143;50.924;5.320;2022-12-10T15:12:51;79.72;;;29.15;;
25191;SDS011;13143;50.924;5.320;2022-12-10T15:15:21;88.13;;;30.73;;
25191;SDS011;13143;50.924;5.320;2022-12-10T15:17:59;82.50;;;29.05;;
25191;SDS011;13143;50.924;5.320;2022-12-10T15:20:30;76.70;;;27.95;;
25191;SDS011;13143;50.924;5.320;2022-12-10T15:23:34;75.43;;;28.27;;
25191;SDS011;13143;50.924;5.320;2022-12-10T15:30:58;88.82;;;30.73;;
25191;SDS011;13143;50.924;5.320;2022-12-10T15:33:48;84.45;;;31.75;;
25191;SDS011;13143;50.924;5.320;2022-12-10T15:36:25;90.88;;;31.73;;
25191;SDS011;13143;50.924;5.320;2022-12-10T15:38:57;92.80;;;31.40;;
25191;SDS011;13143;50.924;5.320;2022-12-10T15:49:39;82.15;;;30.33;;
25191;SDS011;13143;50.924;5.320;2022-12-10T15:52:05;86.22;;;30.67;;
25191;SDS011;13143;50.924;5.320;2022-12-10T15:54:35;80.72;;;30.30;;
25191;SDS011;13143;50.924;5.320;2022-12-10T15:57:15;88.32;;;31.73;;
25191;SDS011;13143;50.924;5.320;2022-12-10T15:59:43;87.78;;;29.45;;
25191;SDS011;13143;50.924;5.320;2022-12-10T16:02:24;86.60;;;29.58;;
25191;SDS011;13143;50.924;5.320;2022-12-10T16:05:00;90.75;;;29.70;;
25191;SDS011;13143;50.924;5.320;2022-12-10T16:07:25;89.70;;;30.05;;
25191;SDS011;13143;50.924;5.320;2022-12-10T16:09:51;94.55;;;30.73;;
25191;SDS011;13143;50.924;5.320;2022-12-10T16:12:17;94.13;;;33.67;;
25191;SDS011;13143;50.924;5.320;2022-12-10T16:14:48;100.47;;;38.65;;
25191;SDS011;13143;50.924;5.320;2022-12-10T16:17:16;105.95;;;37.75;;
25191;SDS011;13143;50.924;5.320;2022-12-10T16:19:42;104.97;;;36.90;;
25191;SDS011;13143;50.924;5.320;2022-12-10T16:22:08;102.82;;;37.30;;
25191;SDS011;13143;50.924;5.320;2022-12-10T16:24:34;110.13;;;39.05;;
25191;SDS011;13143;50.924;5.320;2022-12-10T16:27:00;119.50;;;42.30;;
25191;SDS011;13143;50.924;5.320;2022-12-10T16:29:26;100.97;;;38.17;;
25191;SDS011;13143;50.924;5.320;2022-12-10T16:31:52;98.85;;;37.10;;
25191;SDS011;13143;50.924;5.320;2022-12-10T16:34:17;109.82;;;35.58;;
25191;SDS011;13143;50.924;5.320;2022-12-10T16:36:43;98.20;;;34.47;;
25191;SDS011;13143;50.924;5.320;2022-12-10T16:39:09;107.30;;;35.22;;
25191;SDS011;13143;50.924;5.320;2022-12-10T16:41:34;105.28;;;35.53;;
25191;SDS011;13143;50.924;5.320;2022-12-10T16:44:00;97.93;;;34.33;;
25191;SDS011;13143;50.924;5.320;2022-12-10T16:46:26;92.65;;;34.38;;